createdAt,value
2019-03-16T00:01:06.954Z,15.40
2019-03-16T00:03:34.600Z,17.57
2019-03-16T00:06:01.991Z,19.60
2019-03-16T00:08:29.455Z,18.70
2019-03-16T00:10:56.965Z,19.23
2019-03-16T00:13:24.555Z,18.43
2019-03-16T00:15:52.008Z,18.07
2019-03-16T00:18:19.442Z,19.10
2019-03-16T00:20:46.874Z,18.87
2019-03-16T00:23:14.381Z,18.30
2019-03-16T00:25:41.934Z,17.83
2019-03-16T00:28:09.419Z,18.63
2019-03-16T00:30:36.936Z,18.30
2019-03-16T00:33:04.621Z,18.40
2019-03-16T00:35:32.134Z,18.37
2019-03-16T00:38:00.223Z,15.73
2019-03-16T00:40:27.841Z,15.93
2019-03-16T00:42:55.372Z,17.17
2019-03-16T00:45:22.825Z,16.33
2019-03-16T00:47:50.935Z,16.73
2019-03-16T00:50:18.730Z,15.27
2019-03-16T00:52:46.298Z,15.83
2019-03-16T00:55:13.827Z,15.60
2019-03-16T00:57:41.413Z,15.20
2019-03-16T01:00:10.266Z,13.93
2019-03-16T01:02:38.138Z,13.63
2019-03-16T01:05:07.678Z,14.27
2019-03-16T01:07:35.253Z,13.97
2019-03-16T01:10:02.709Z,12.93
2019-03-16T01:12:30.177Z,14.00
2019-03-16T01:14:57.715Z,11.47
2019-03-16T01:17:25.214Z,12.33
2019-03-16T01:19:52.774Z,12.10
2019-03-16T01:22:20.343Z,10.23
2019-03-16T01:24:47.902Z,10.07
2019-03-16T01:27:15.359Z,10.70
2019-03-16T01:29:43.282Z,10.97
2019-03-16T01:32:10.881Z,10.93
2019-03-16T01:34:38.357Z,10.43
2019-03-16T01:37:05.884Z,10.60
2019-03-16T01:39:33.514Z,9.17
2019-03-16T01:42:01.046Z,9.57
2019-03-16T01:44:28.481Z,9.10
2019-03-16T01:46:55.980Z,9.97
2019-03-16T01:49:23.638Z,9.03
2019-03-16T01:51:51.147Z,8.90
2019-03-16T01:54:18.670Z,9.17
2019-03-16T01:56:46.161Z,9.27
2019-03-16T01:59:13.656Z,9.47
2019-03-16T02:01:41.134Z,10.07
2019-03-16T02:04:08.616Z,9.17
2019-03-16T02:06:36.084Z,8.43
2019-03-16T02:09:05.209Z,8.63
2019-03-16T02:11:32.712Z,8.37
2019-03-16T02:14:00.232Z,8.40
2019-03-16T02:16:27.621Z,8.47
2019-03-16T02:18:55.205Z,8.57
2019-03-16T02:21:22.652Z,8.20
2019-03-16T02:23:50.074Z,7.00
2019-03-16T02:26:17.578Z,8.20
2019-03-16T02:28:45.043Z,9.30
2019-03-16T02:31:12.550Z,9.10
2019-03-16T02:33:40.195Z,7.93
2019-03-16T02:36:07.754Z,7.70
2019-03-16T02:38:35.301Z,8.10
2019-03-16T02:41:04.014Z,7.50
2019-03-16T02:43:31.544Z,6.93
2019-03-16T02:45:58.998Z,6.93
2019-03-16T02:48:26.446Z,8.23
2019-03-16T02:50:54.011Z,7.20
2019-03-16T02:53:21.589Z,7.70
2019-03-16T02:55:49.133Z,7.97
2019-03-16T02:58:17.066Z,7.47
2019-03-16T03:00:44.587Z,7.37
2019-03-16T03:03:28.059Z,7.50
2019-03-16T03:05:41.621Z,8.03
2019-03-16T03:08:09.180Z,8.43
2019-03-16T03:10:36.669Z,7.83
2019-03-16T03:13:04.305Z,7.63
2019-03-16T03:15:31.893Z,7.57
2019-03-16T03:17:59.389Z,7.93
2019-03-16T03:20:26.834Z,7.50
2019-03-16T03:22:54.239Z,7.47
2019-03-16T03:25:21.712Z,8.67
2019-03-16T03:27:49.179Z,7.70
2019-03-16T03:30:16.816Z,6.47
2019-03-16T03:32:44.411Z,7.27
2019-03-16T03:35:12.046Z,7.40
2019-03-16T03:37:39.586Z,7.93
2019-03-16T03:40:07.257Z,7.50
2019-03-16T03:42:35.007Z,7.47
2019-03-16T03:45:02.801Z,8.07
2019-03-16T03:47:30.228Z,7.03
2019-03-16T03:49:57.729Z,7.83
2019-03-16T03:52:26.704Z,8.30
2019-03-16T03:54:54.487Z,6.57
2019-03-16T03:57:22.125Z,7.47
2019-03-16T03:59:49.579Z,7.57
2019-03-16T04:02:17.145Z,6.93
2019-03-16T04:04:44.790Z,7.70
2019-03-16T04:07:12.295Z,7.03
2019-03-16T04:09:40.060Z,8.13
2019-03-16T04:12:07.774Z,8.10
2019-03-16T04:14:35.284Z,8.33
2019-03-16T04:17:02.873Z,7.60
2019-03-16T04:19:30.358Z,7.03
2019-03-16T04:21:58.368Z,7.43
2019-03-16T04:24:26.588Z,7.57
2019-03-16T04:26:54.547Z,7.40
2019-03-16T04:29:23.325Z,7.07
2019-03-16T04:31:52.282Z,7.70
2019-03-16T04:34:29.276Z,7.13
2019-03-16T04:36:49.633Z,7.63
2019-03-16T04:39:17.698Z,6.90
2019-03-16T04:41:45.230Z,6.83
2019-03-16T04:44:13.674Z,7.20
2019-03-16T04:46:42.804Z,7.53
2019-03-16T04:49:10.345Z,6.97
2019-03-16T04:51:37.891Z,6.30
2019-03-16T04:54:05.866Z,6.77
2019-03-16T04:56:33.505Z,7.37
2019-03-16T04:59:00.933Z,7.27
2019-03-16T05:01:28.970Z,8.13
2019-03-16T05:03:57.064Z,7.30
2019-03-16T05:06:24.476Z,8.60
2019-03-16T05:08:51.942Z,8.50
2019-03-16T05:11:19.421Z,7.77
2019-03-16T05:13:46.908Z,10.93
2019-03-16T05:16:14.405Z,10.47
2019-03-16T05:18:42.054Z,9.97
2019-03-16T05:21:09.545Z,10.47
2019-03-16T05:23:37.868Z,9.80
2019-03-16T05:26:05.944Z,8.20
2019-03-16T05:28:33.372Z,8.63
2019-03-16T05:31:00.861Z,9.87
2019-03-16T05:33:28.886Z,9.83
2019-03-16T05:35:56.592Z,9.00
2019-03-16T05:38:24.104Z,11.03
2019-03-16T05:40:51.737Z,14.63
2019-03-16T05:43:19.349Z,13.80
2019-03-16T05:45:47.011Z,14.50
2019-03-16T05:48:14.526Z,14.00
2019-03-16T05:50:42.145Z,18.33
2019-03-16T05:53:09.684Z,16.70
2019-03-16T05:55:37.212Z,16.47
2019-03-16T05:58:04.814Z,14.13
2019-03-16T06:00:32.356Z,11.53
2019-03-16T06:02:59.785Z,12.13
2019-03-16T06:05:28.495Z,12.70
2019-03-16T06:07:55.984Z,13.33
2019-03-16T06:10:23.535Z,11.10
2019-03-16T06:12:50.936Z,16.33
2019-03-16T06:15:18.480Z,11.10
2019-03-16T06:17:46.152Z,11.47
2019-03-16T06:20:13.929Z,10.37
2019-03-16T06:22:43.364Z,11.57
2019-03-16T06:25:11.493Z,10.20
2019-03-16T06:27:41.037Z,11.87
2019-03-16T06:30:08.884Z,10.10
2019-03-16T06:32:36.394Z,10.87
2019-03-16T06:35:04.221Z,9.40
2019-03-16T06:37:31.812Z,10.03
2019-03-16T06:39:59.428Z,11.33
2019-03-16T06:42:27.104Z,9.53
2019-03-16T06:44:54.663Z,11.50
2019-03-16T06:47:23.278Z,12.10
2019-03-16T06:49:50.930Z,13.37
2019-03-16T06:52:18.514Z,13.63
2019-03-16T06:54:47.496Z,13.00
2019-03-16T06:57:15.284Z,13.30
2019-03-16T06:59:43.230Z,13.00
2019-03-16T07:02:10.749Z,11.90
2019-03-16T07:04:39.921Z,8.47
2019-03-16T07:07:08.073Z,7.63
2019-03-16T07:09:35.738Z,8.10
2019-03-16T07:12:03.316Z,9.77
2019-03-16T07:14:30.981Z,9.23
2019-03-16T07:17:02.357Z,7.80
2019-03-16T07:19:29.359Z,6.70
2019-03-16T07:21:56.993Z,7.67
2019-03-16T07:24:24.691Z,6.47
2019-03-16T07:26:52.293Z,6.53
2019-03-16T07:29:19.919Z,5.40
2019-03-16T07:31:47.744Z,7.17
2019-03-16T07:34:15.387Z,6.70
2019-03-16T07:36:43.222Z,5.87
2019-03-16T07:39:12.726Z,6.27
2019-03-16T07:41:40.356Z,9.03
2019-03-16T07:44:08.083Z,9.60
2019-03-16T07:46:35.950Z,7.97
2019-03-16T07:49:06.060Z,8.90
2019-03-16T07:51:34.019Z,10.50
2019-03-16T07:54:05.093Z,9.13
2019-03-16T07:56:32.678Z,9.97
2019-03-16T07:59:00.234Z,10.50
2019-03-16T08:01:27.713Z,8.53
2019-03-16T08:03:55.262Z,8.93
2019-03-16T08:06:22.687Z,9.73
2019-03-16T08:08:50.206Z,7.13
2019-03-16T08:11:18.404Z,8.37
2019-03-16T08:13:45.889Z,8.97
2019-03-16T08:16:13.589Z,9.87
2019-03-16T08:18:42.234Z,8.47
2019-03-16T08:21:12.577Z,9.37
2019-03-16T08:23:40.500Z,8.07
2019-03-16T08:26:08.364Z,10.00
2019-03-16T08:28:36.491Z,15.70
2019-03-16T08:31:05.273Z,11.73
2019-03-16T08:33:32.712Z,8.67
2019-03-16T08:36:00.780Z,11.47
2019-03-16T08:38:30.382Z,9.67
2019-03-16T08:40:58.303Z,12.63
2019-03-16T08:43:27.245Z,16.53
2019-03-16T08:45:54.704Z,7.70
2019-03-16T08:48:23.397Z,8.03
2019-03-16T08:50:51.048Z,9.77
2019-03-16T08:53:18.630Z,8.57
2019-03-16T08:55:49.160Z,8.33
2019-03-16T08:58:16.745Z,8.90
2019-03-16T09:00:44.250Z,7.47
2019-03-16T09:03:11.892Z,7.63
2019-03-16T09:05:39.376Z,8.27
2019-03-16T09:08:06.924Z,7.67
2019-03-16T09:10:34.405Z,7.03
2019-03-16T09:13:03.233Z,7.27
2019-03-16T09:15:31.230Z,7.60
2019-03-16T09:17:58.707Z,7.90
2019-03-16T09:20:26.096Z,8.07
2019-03-16T09:22:53.719Z,7.77
2019-03-16T09:25:21.218Z,8.10
2019-03-16T09:27:50.006Z,7.60
2019-03-16T09:30:17.507Z,7.63
2019-03-16T09:32:49.662Z,7.20
2019-03-16T09:35:17.125Z,6.27
2019-03-16T09:37:44.656Z,7.50
2019-03-16T09:40:12.588Z,6.60
2019-03-16T09:42:40.188Z,6.13
2019-03-16T09:45:08.720Z,6.90
2019-03-16T09:47:38.782Z,6.37
2019-03-16T09:50:07.654Z,6.70
2019-03-16T09:52:36.351Z,6.80
2019-03-16T09:55:04.200Z,7.03
2019-03-16T09:57:33.128Z,7.27
2019-03-16T10:00:02.623Z,6.83
2019-03-16T10:02:30.168Z,6.67
2019-03-16T10:04:58.780Z,6.27
2019-03-16T10:07:26.683Z,6.27
2019-03-16T10:09:54.226Z,6.03
2019-03-16T10:12:21.945Z,6.43
2019-03-16T10:14:49.538Z,6.40
2019-03-16T10:17:17.204Z,6.43
2019-03-16T10:19:44.835Z,3.80
2019-03-16T10:22:14.080Z,5.40
2019-03-16T10:24:41.677Z,3.63
2019-03-16T10:27:09.216Z,2.97
2019-03-16T10:29:36.733Z,1.43
2019-03-16T10:32:05.147Z,1.33
2019-03-16T10:34:32.652Z,1.13
2019-03-16T10:37:00.372Z,1.10
2019-03-16T10:39:27.976Z,2.17
2019-03-16T10:41:55.658Z,2.50
2019-03-16T10:44:23.162Z,1.90
2019-03-16T10:46:51.662Z,1.73
2019-03-16T10:49:20.679Z,2.33
2019-03-16T10:51:48.688Z,1.40
2019-03-16T10:54:17.055Z,2.80
2019-03-16T10:56:44.843Z,2.30
2019-03-16T10:59:12.443Z,2.37
2019-03-16T11:01:40.998Z,1.17
2019-03-16T11:04:09.796Z,5.03
2019-03-16T11:06:38.890Z,2.20
2019-03-16T11:09:06.788Z,3.97
2019-03-16T11:11:34.446Z,1.03
2019-03-16T11:14:02.056Z,1.37
2019-03-16T11:16:29.634Z,1.57
2019-03-16T11:18:59.258Z,2.07
2019-03-16T11:21:28.074Z,1.33
2019-03-16T11:23:56.052Z,1.60
2019-03-16T11:26:23.712Z,1.67
2019-03-16T11:29:04.504Z,1.47
2019-03-16T11:31:25.392Z,2.00
2019-03-16T11:33:53.050Z,1.63
2019-03-16T11:36:20.923Z,1.70
2019-03-16T11:38:50.680Z,1.60
2019-03-16T11:41:18.246Z,1.50
2019-03-16T11:43:46.168Z,1.40
2019-03-16T11:46:15.327Z,1.43
2019-03-16T11:48:43.532Z,2.23
2019-03-16T11:51:10.972Z,1.90
2019-03-16T11:53:38.531Z,1.50
2019-03-16T11:56:17.869Z,1.90
2019-03-16T11:58:38.318Z,5.67
2019-03-16T12:01:05.868Z,4.23
2019-03-16T12:03:33.607Z,2.27
2019-03-16T12:06:01.178Z,4.87
2019-03-16T12:08:28.879Z,1.70
2019-03-16T12:10:56.891Z,1.70
2019-03-16T12:13:28.914Z,2.00
2019-03-16T12:15:56.522Z,1.63
2019-03-16T12:18:24.062Z,2.47
2019-03-16T12:20:51.562Z,2.27
2019-03-16T12:23:19.104Z,2.40
2019-03-16T12:25:46.899Z,2.97
2019-03-16T12:28:14.374Z,2.63
2019-03-16T12:30:53.813Z,2.00
2019-03-16T12:33:21.548Z,6.40
2019-03-16T12:35:51.255Z,4.27
2019-03-16T12:38:19.733Z,3.93
2019-03-16T12:40:47.334Z,1.70
2019-03-16T12:43:16.540Z,2.93
2019-03-16T12:45:44.212Z,2.77
2019-03-16T12:48:12.725Z,2.90
2019-03-16T12:50:40.339Z,1.90
2019-03-16T12:53:10.108Z,1.70
2019-03-16T12:55:37.718Z,1.40
2019-03-16T12:58:06.145Z,3.60
2019-03-16T13:00:35.502Z,1.60
2019-03-16T13:03:02.995Z,1.60
2019-03-16T13:05:30.548Z,1.40
2019-03-16T13:07:58.020Z,1.60
2019-03-16T13:10:25.612Z,1.60
2019-03-16T13:12:53.539Z,3.40
2019-03-16T13:15:21.103Z,3.33
2019-03-16T13:17:48.522Z,1.80
2019-03-16T13:20:16.863Z,1.43
2019-03-16T13:22:45.029Z,2.00
2019-03-16T13:25:13.658Z,3.67
2019-03-16T13:27:41.397Z,1.40
2019-03-16T13:30:10.842Z,2.47
2019-03-16T13:32:39.240Z,1.37
2019-03-16T13:35:07.684Z,1.73
2019-03-16T13:37:36.927Z,1.57
2019-03-16T13:40:05.388Z,2.00
2019-03-16T13:42:33.579Z,1.60
2019-03-16T13:45:01.150Z,2.07
2019-03-16T13:47:28.735Z,2.33
2019-03-16T13:49:56.701Z,1.40
2019-03-16T13:52:24.210Z,2.77
2019-03-16T13:54:51.753Z,2.03
2019-03-16T13:57:19.454Z,1.47
2019-03-16T13:59:46.991Z,2.17
2019-03-16T14:02:14.468Z,2.83
2019-03-16T14:04:42.454Z,2.40
2019-03-16T14:07:09.988Z,2.00
2019-03-16T14:09:37.489Z,2.63
2019-03-16T14:12:05.407Z,2.20
2019-03-16T14:14:32.876Z,2.30
2019-03-16T14:17:00.275Z,2.30
2019-03-16T14:19:27.744Z,2.73
2019-03-16T14:21:55.488Z,2.20
2019-03-16T14:24:23.412Z,2.13
2019-03-16T14:26:51.307Z,2.10
2019-03-16T14:29:18.815Z,2.40
2019-03-16T14:31:46.292Z,2.33
2019-03-16T14:34:13.777Z,2.23
2019-03-16T14:36:41.338Z,2.23
2019-03-16T14:39:08.861Z,2.37
2019-03-16T14:41:36.455Z,2.00
2019-03-16T14:44:04.427Z,2.33
2019-03-16T14:46:33.025Z,2.80
2019-03-16T14:49:00.522Z,2.77
2019-03-16T14:51:28.084Z,2.70
2019-03-16T14:53:56.822Z,3.07
2019-03-16T14:56:24.324Z,2.80
2019-03-16T14:58:51.786Z,2.90
2019-03-16T15:01:19.369Z,2.60
2019-03-16T15:03:46.906Z,2.70
2019-03-16T15:06:14.490Z,2.83
2019-03-16T15:08:41.924Z,2.70
2019-03-16T15:11:09.481Z,2.70
2019-03-16T15:13:36.983Z,3.27
2019-03-16T15:16:04.438Z,2.80
2019-03-16T15:18:31.981Z,3.10
2019-03-16T15:20:59.521Z,3.57
2019-03-16T15:23:27.133Z,3.67
2019-03-16T15:25:54.784Z,3.00
2019-03-16T15:28:22.320Z,3.43
2019-03-16T15:30:51.061Z,3.40
2019-03-16T15:33:18.746Z,3.20
2019-03-16T15:35:46.289Z,3.60
2019-03-16T15:38:13.782Z,3.20
2019-03-16T15:40:41.228Z,3.37
2019-03-16T15:43:08.703Z,4.07
2019-03-16T15:45:36.220Z,3.70
2019-03-16T15:48:03.921Z,4.10
2019-03-16T15:50:31.460Z,3.63
2019-03-16T15:52:59.019Z,3.87
2019-03-16T15:55:26.619Z,4.13
2019-03-16T15:58:06.999Z,4.00
2019-03-16T16:00:23.755Z,3.50
2019-03-16T16:02:51.285Z,3.93
2019-03-16T16:05:18.804Z,3.87
2019-03-16T16:07:46.309Z,3.43
2019-03-16T16:10:13.879Z,3.77
2019-03-16T16:12:41.507Z,4.00
2019-03-16T16:15:09.228Z,4.37
2019-03-16T16:17:36.606Z,4.10
2019-03-16T16:20:04.622Z,3.47
2019-03-16T16:22:33.093Z,3.80
2019-03-16T16:25:00.673Z,3.47
2019-03-16T16:27:29.312Z,3.23
2019-03-16T16:29:56.867Z,5.47
2019-03-16T16:32:24.363Z,4.63
2019-03-16T16:34:52.337Z,7.27
2019-03-16T16:37:19.905Z,4.73
2019-03-16T16:39:47.605Z,10.10
2019-03-16T16:42:15.057Z,5.20
2019-03-16T16:44:42.705Z,5.10
2019-03-16T16:47:10.223Z,5.87
2019-03-16T16:49:37.886Z,6.10
2019-03-16T16:52:06.512Z,4.50
2019-03-16T16:54:37.591Z,4.47
2019-03-16T16:57:04.389Z,3.90
2019-03-16T16:59:37.332Z,4.03
2019-03-16T17:02:05.403Z,4.03
2019-03-16T17:04:32.921Z,4.07
2019-03-16T17:07:00.438Z,5.13
2019-03-16T17:09:27.893Z,6.03
2019-03-16T17:11:55.365Z,5.00
2019-03-16T17:14:22.786Z,4.87
2019-03-16T17:16:50.351Z,4.37
2019-03-16T17:19:18.134Z,5.00
2019-03-16T17:21:45.685Z,5.20
2019-03-16T17:24:13.174Z,5.17
2019-03-16T17:26:40.754Z,4.93
2019-03-16T17:29:08.202Z,5.07
2019-03-16T17:31:42.185Z,5.53
2019-03-16T17:34:05.118Z,6.00
2019-03-16T17:36:32.631Z,5.47
2019-03-16T17:39:00.067Z,8.47
2019-03-16T17:41:27.576Z,8.20
2019-03-16T17:43:55.261Z,8.37
2019-03-16T17:46:22.759Z,5.93
2019-03-16T17:48:50.198Z,6.67
2019-03-16T17:51:17.953Z,6.07
2019-03-16T17:53:46.969Z,7.07
2019-03-16T17:56:14.691Z,7.13
2019-03-16T17:58:42.327Z,5.77
2019-03-16T18:01:09.843Z,5.80
2019-03-16T18:03:37.746Z,5.47
2019-03-16T18:06:06.140Z,4.80
2019-03-16T18:08:33.623Z,6.17
2019-03-16T18:11:01.171Z,5.00
2019-03-16T18:13:28.639Z,5.03
2019-03-16T18:15:56.176Z,5.37
2019-03-16T18:18:23.648Z,7.07
2019-03-16T18:20:51.202Z,7.13
2019-03-16T18:23:19.103Z,5.30
2019-03-16T18:25:47.633Z,5.60
2019-03-16T18:28:15.188Z,6.53
2019-03-16T18:30:44.502Z,10.93
2019-03-16T18:33:12.113Z,9.97
2019-03-16T18:35:39.609Z,6.90
2019-03-16T18:38:07.034Z,7.03
2019-03-16T18:40:34.522Z,6.17
2019-03-16T18:43:02.022Z,5.97
2019-03-16T18:45:29.480Z,5.77
2019-03-16T18:47:57.037Z,5.37
2019-03-16T18:50:25.110Z,5.73
2019-03-16T18:52:52.730Z,5.63
2019-03-16T18:55:20.306Z,5.90
2019-03-16T18:57:47.820Z,5.73
2019-03-16T19:00:15.456Z,6.47
2019-03-16T19:02:43.398Z,5.07
2019-03-16T19:05:11.569Z,5.70
2019-03-16T19:07:39.514Z,6.43
2019-03-16T19:10:08.596Z,6.33
2019-03-16T19:12:36.780Z,5.70
2019-03-16T19:15:05.593Z,5.37
2019-03-16T19:17:34.128Z,5.77
2019-03-16T19:20:02.367Z,6.17
2019-03-16T19:22:29.948Z,6.00
2019-03-16T19:24:57.361Z,5.40
2019-03-16T19:27:25.181Z,5.17
2019-03-16T19:29:53.073Z,5.63
2019-03-16T19:32:32.996Z,5.97
2019-03-16T19:34:51.443Z,5.27
2019-03-16T19:37:21.250Z,5.57
2019-03-16T19:39:50.120Z,4.33
2019-03-16T19:42:18.469Z,4.97
2019-03-16T19:44:46.707Z,5.37
2019-03-16T19:47:14.379Z,4.53
2019-03-16T19:49:41.958Z,5.27
2019-03-16T19:52:09.433Z,4.70
2019-03-16T19:54:37.051Z,5.47
2019-03-16T19:57:15.286Z,5.40
2019-03-16T19:59:34.016Z,5.20
2019-03-16T20:02:01.460Z,5.00
2019-03-16T20:04:35.973Z,5.73
2019-03-16T20:06:58.369Z,5.73
2019-03-16T20:09:25.811Z,5.33
2019-03-16T20:11:53.215Z,5.80
2019-03-16T20:14:20.667Z,5.37
2019-03-16T20:16:48.159Z,5.07
2019-03-16T20:19:15.548Z,5.57
2019-03-16T20:21:43.294Z,4.70
2019-03-16T20:24:10.827Z,5.57
2019-03-16T20:26:38.342Z,5.63
2019-03-16T20:29:07.886Z,5.20
2019-03-16T20:31:46.448Z,4.93
2019-03-16T20:34:04.612Z,4.73
2019-03-16T20:36:32.118Z,5.43
2019-03-16T20:38:59.501Z,5.43
2019-03-16T20:41:36.163Z,4.93
2019-03-16T20:43:56.492Z,5.33
2019-03-16T20:46:24.043Z,5.57
2019-03-16T20:48:51.479Z,5.33
2019-03-16T20:51:19.023Z,5.33
2019-03-16T20:53:46.573Z,5.23
2019-03-16T20:56:14.101Z,6.53
2019-03-16T20:58:41.533Z,7.30
2019-03-16T21:01:09.056Z,11.13
2019-03-16T21:03:36.688Z,11.17
2019-03-16T21:06:04.322Z,11.33
2019-03-16T21:08:31.850Z,14.03
2019-03-16T21:10:59.320Z,12.97
2019-03-16T21:13:26.802Z,16.83
2019-03-16T21:15:54.231Z,13.93
2019-03-16T21:18:21.634Z,9.00
2019-03-16T21:20:49.289Z,9.70
2019-03-16T21:23:16.815Z,8.60
2019-03-16T21:25:44.307Z,8.67
2019-03-16T21:28:11.706Z,8.87
2019-03-16T21:30:39.722Z,7.37
2019-03-16T21:33:07.230Z,8.30
2019-03-16T21:35:34.816Z,7.40
2019-03-16T21:38:02.438Z,9.00
2019-03-16T21:40:29.920Z,9.53
2019-03-16T21:42:57.403Z,8.10
2019-03-16T21:45:25.126Z,9.10
2019-03-16T21:47:59.869Z,10.90
2019-03-16T21:50:22.040Z,12.47
2019-03-16T21:52:50.057Z,21.07
2019-03-16T21:55:17.612Z,26.93
2019-03-16T21:57:45.065Z,30.00
2019-03-16T22:00:13.038Z,35.37
2019-03-16T22:02:40.574Z,37.37
2019-03-16T22:05:08.497Z,20.87
2019-03-16T22:07:36.065Z,24.13
2019-03-16T22:10:05.615Z,17.57
2019-03-16T22:12:33.083Z,16.07
2019-03-16T22:15:00.793Z,12.13
2019-03-16T22:17:28.244Z,8.97
2019-03-16T22:19:55.709Z,11.50
2019-03-16T22:22:23.193Z,12.80
2019-03-16T22:24:50.662Z,15.17
2019-03-16T22:27:18.160Z,14.30
2019-03-16T22:29:45.678Z,15.23
2019-03-16T22:32:13.136Z,15.53
2019-03-16T22:34:40.626Z,14.07
2019-03-16T22:37:08.140Z,14.40
2019-03-16T22:39:35.588Z,14.00
2019-03-16T22:42:03.192Z,13.63
2019-03-16T22:44:33.138Z,13.87
2019-03-16T22:47:00.562Z,14.20
2019-03-16T22:49:27.978Z,14.10
2019-03-16T22:51:56.645Z,14.83
2019-03-16T22:54:24.385Z,14.10
2019-03-16T22:56:51.823Z,14.33
2019-03-16T22:59:19.320Z,13.20
2019-03-16T23:01:46.801Z,12.93
2019-03-16T23:04:14.264Z,15.50
2019-03-16T23:06:41.726Z,14.37
2019-03-16T23:09:09.234Z,15.90
2019-03-16T23:11:36.715Z,15.33
2019-03-16T23:14:04.310Z,13.93
2019-03-16T23:16:31.820Z,13.47
2019-03-16T23:18:59.277Z,14.60
2019-03-16T23:21:26.749Z,12.73
2019-03-16T23:23:54.187Z,13.47
2019-03-16T23:26:21.667Z,15.30
2019-03-16T23:28:49.179Z,15.23
2019-03-16T23:31:16.683Z,14.50
2019-03-16T23:33:44.160Z,14.40
2019-03-16T23:36:11.645Z,15.37
2019-03-16T23:38:39.121Z,14.67
2019-03-16T23:41:06.557Z,15.27
2019-03-16T23:43:34.035Z,10.83
2019-03-16T23:46:01.583Z,12.27
2019-03-16T23:48:28.999Z,13.83
2019-03-16T23:50:56.456Z,15.67
2019-03-16T23:53:23.951Z,14.23
2019-03-16T23:55:51.679Z,14.13
2019-03-16T23:58:19.198Z,13.67
